Air Resources Laboratory banner image
Air Resources Laboratory web site National Oceanic and Atmospheric Administration (NOAA)

pr metar


TJSJ 180356Z 02007KT 9SM -RA FEW023 BKN050 BKN065 26/24 A3011 RMK AO2 SLP196
 P0030 T02560239 403110250=
TJSJ 180356Z 02007KT 9SM -RA FEW023 BKN050 BKN065 26/24 A3011=